sensor_id;sensor_type;location;lat;lon;timestamp;P1;durP1;ratioP1;P2;durP2;ratioP2
16731;SDS011;8484;50.904;9.192;2023-04-15T00:00:22;14.70;;;13.67;;
16731;SDS011;8484;50.904;9.192;2023-04-15T00:02:51;13.57;;;12.67;;
16731;SDS011;8484;50.904;9.192;2023-04-15T00:05:18;13.03;;;12.20;;
16731;SDS011;8484;50.904;9.192;2023-04-15T00:07:45;12.10;;;11.40;;
16731;SDS011;8484;50.904;9.192;2023-04-15T00:10:11;13.13;;;12.17;;
16731;SDS011;8484;50.904;9.192;2023-04-15T00:12:39;13.37;;;12.37;;
16731;SDS011;8484;50.904;9.192;2023-04-15T00:15:07;13.17;;;12.27;;
16731;SDS011;8484;50.904;9.192;2023-04-15T00:17:34;13.20;;;12.10;;
16731;SDS011;8484;50.904;9.192;2023-04-15T00:20:05;13.77;;;12.83;;
16731;SDS011;8484;50.904;9.192;2023-04-15T00:22:32;13.60;;;12.70;;
16731;SDS011;8484;50.904;9.192;2023-04-15T00:24:59;13.53;;;12.63;;
16731;SDS011;8484;50.904;9.192;2023-04-15T00:27:26;14.80;;;13.80;;
16731;SDS011;8484;50.904;9.192;2023-04-15T00:29:54;14.73;;;13.83;;
16731;SDS011;8484;50.904;9.192;2023-04-15T00:32:21;15.37;;;14.37;;
16731;SDS011;8484;50.904;9.192;2023-04-15T00:34:48;16.03;;;15.03;;
16731;SDS011;8484;50.904;9.192;2023-04-15T00:37:16;15.83;;;14.60;;
16731;SDS011;8484;50.904;9.192;2023-04-15T00:39:43;16.43;;;15.13;;
16731;SDS011;8484;50.904;9.192;2023-04-15T00:42:10;15.63;;;14.53;;
16731;SDS011;8484;50.904;9.192;2023-04-15T00:44:38;16.97;;;15.77;;
16731;SDS011;8484;50.904;9.192;2023-04-15T00:47:05;16.70;;;15.60;;
16731;SDS011;8484;50.904;9.192;2023-04-15T00:49:32;17.23;;;16.17;;
16731;SDS011;8484;50.904;9.192;2023-04-15T00:51:59;17.53;;;16.43;;
16731;SDS011;8484;50.904;9.192;2023-04-15T00:54:27;17.43;;;16.20;;
16731;SDS011;8484;50.904;9.192;2023-04-15T00:56:54;18.13;;;16.80;;
16731;SDS011;8484;50.904;9.192;2023-04-15T00:59:22;17.57;;;16.37;;
16731;SDS011;8484;50.904;9.192;2023-04-15T01:01:49;18.07;;;16.77;;
16731;SDS011;8484;50.904;9.192;2023-04-15T01:04:16;17.93;;;16.73;;
16731;SDS011;8484;50.904;9.192;2023-04-15T01:06:43;17.67;;;16.53;;
16731;SDS011;8484;50.904;9.192;2023-04-15T01:09:10;18.23;;;17.03;;
16731;SDS011;8484;50.904;9.192;2023-04-15T01:11:38;18.20;;;17.00;;
16731;SDS011;8484;50.904;9.192;2023-04-15T01:14:05;18.47;;;17.00;;
16731;SDS011;8484;50.904;9.192;2023-04-15T01:16:34;17.93;;;16.73;;
16731;SDS011;8484;50.904;9.192;2023-04-15T01:19:03;17.80;;;16.60;;
16731;SDS011;8484;50.904;9.192;2023-04-15T01:21:31;17.93;;;16.63;;
16731;SDS011;8484;50.904;9.192;2023-04-15T01:23:59;17.97;;;16.87;;
16731;SDS011;8484;50.904;9.192;2023-04-15T01:26:30;18.50;;;17.30;;
16731;SDS011;8484;50.904;9.192;2023-04-15T01:28:57;17.30;;;16.20;;
16731;SDS011;8484;50.904;9.192;2023-04-15T01:31:24;18.27;;;17.07;;
16731;SDS011;8484;50.904;9.192;2023-04-15T01:33:51;18.07;;;16.77;;
16731;SDS011;8484;50.904;9.192;2023-04-15T01:36:18;17.03;;;15.93;;
16731;SDS011;8484;50.904;9.192;2023-04-15T01:38:45;17.13;;;16.03;;
16731;SDS011;8484;50.904;9.192;2023-04-15T01:41:12;16.83;;;15.73;;
16731;SDS011;8484;50.904;9.192;2023-04-15T01:43:40;17.40;;;16.20;;
16731;SDS011;8484;50.904;9.192;2023-04-15T01:46:07;16.67;;;15.57;;
16731;SDS011;8484;50.904;9.192;2023-04-15T01:48:34;16.90;;;15.80;;
16731;SDS011;8484;50.904;9.192;2023-04-15T01:51:01;17.50;;;16.30;;
16731;SDS011;8484;50.904;9.192;2023-04-15T01:53:28;17.17;;;15.97;;
16731;SDS011;8484;50.904;9.192;2023-04-15T01:55:55;17.43;;;16.23;;
16731;SDS011;8484;50.904;9.192;2023-04-15T01:58:22;17.70;;;16.50;;
16731;SDS011;8484;50.904;9.192;2023-04-15T02:00:50;18.13;;;16.93;;
16731;SDS011;8484;50.904;9.192;2023-04-15T02:03:17;18.00;;;16.70;;
16731;SDS011;8484;50.904;9.192;2023-04-15T02:05:44;18.80;;;17.50;;
16731;SDS011;8484;50.904;9.192;2023-04-15T02:08:11;17.77;;;16.47;;
16731;SDS011;8484;50.904;9.192;2023-04-15T02:10:38;18.20;;;17.00;;
16731;SDS011;8484;50.904;9.192;2023-04-15T02:13:05;19.27;;;17.80;;
16731;SDS011;8484;50.904;9.192;2023-04-15T02:15:32;19.53;;;18.13;;
16731;SDS011;8484;50.904;9.192;2023-04-15T02:18:00;19.23;;;18.00;;
16731;SDS011;8484;50.904;9.192;2023-04-15T02:20:27;18.43;;;17.07;;
16731;SDS011;8484;50.904;9.192;2023-04-15T02:22:56;17.83;;;16.70;;
16731;SDS011;8484;50.904;9.192;2023-04-15T02:25:23;17.80;;;16.40;;
16731;SDS011;8484;50.904;9.192;2023-04-15T02:27:49;16.97;;;15.87;;
16731;SDS011;8484;50.904;9.192;2023-04-15T02:30:17;17.10;;;15.87;;
16731;SDS011;8484;50.904;9.192;2023-04-15T02:32:44;17.03;;;15.93;;
16731;SDS011;8484;50.904;9.192;2023-04-15T02:35:13;16.73;;;15.73;;
16731;SDS011;8484;50.904;9.192;2023-04-15T02:37:43;16.90;;;15.80;;
16731;SDS011;8484;50.904;9.192;2023-04-15T02:40:10;17.07;;;15.53;;
16731;SDS011;8484;50.904;9.192;2023-04-15T02:42:37;16.80;;;15.60;;
16731;SDS011;8484;50.904;9.192;2023-04-15T02:45:05;17.07;;;15.97;;
16731;SDS011;8484;50.904;9.192;2023-04-15T02:47:32;16.60;;;15.47;;
16731;SDS011;8484;50.904;9.192;2023-04-15T02:50:00;17.63;;;16.33;;
16731;SDS011;8484;50.904;9.192;2023-04-15T02:52:29;18.90;;;17.60;;
16731;SDS011;8484;50.904;9.192;2023-04-15T02:54:56;19.43;;;18.03;;
16731;SDS011;8484;50.904;9.192;2023-04-15T02:57:25;18.33;;;17.13;;
16731;SDS011;8484;50.904;9.192;2023-04-15T02:59:52;18.13;;;16.73;;
16731;SDS011;8484;50.904;9.192;2023-04-15T03:02:19;17.47;;;16.37;;
16731;SDS011;8484;50.904;9.192;2023-04-15T03:04:46;17.27;;;16.27;;
16731;SDS011;8484;50.904;9.192;2023-04-15T03:07:13;18.97;;;17.57;;
16731;SDS011;8484;50.904;9.192;2023-04-15T03:09:42;19.10;;;17.90;;
16731;SDS011;8484;50.904;9.192;2023-04-15T03:12:14;19.57;;;18.27;;
16731;SDS011;8484;50.904;9.192;2023-04-15T03:14:41;19.57;;;18.37;;
16731;SDS011;8484;50.904;9.192;2023-04-15T03:17:08;18.60;;;17.40;;
16731;SDS011;8484;50.904;9.192;2023-04-15T03:19:35;18.33;;;17.13;;
16731;SDS011;8484;50.904;9.192;2023-04-15T03:22:03;19.07;;;17.87;;
16731;SDS011;8484;50.904;9.192;2023-04-15T03:24:30;18.90;;;17.70;;
16731;SDS011;8484;50.904;9.192;2023-04-15T03:26:58;20.10;;;18.80;;
16731;SDS011;8484;50.904;9.192;2023-04-15T03:29:25;21.20;;;19.70;;
16731;SDS011;8484;50.904;9.192;2023-04-15T03:31:52;20.60;;;19.20;;
16731;SDS011;8484;50.904;9.192;2023-04-15T03:34:19;22.57;;;21.17;;
16731;SDS011;8484;50.904;9.192;2023-04-15T03:36:46;21.70;;;20.40;;
16731;SDS011;8484;50.904;9.192;2023-04-15T03:39:13;20.87;;;19.57;;
16731;SDS011;8484;50.904;9.192;2023-04-15T03:41:40;20.07;;;18.87;;
16731;SDS011;8484;50.904;9.192;2023-04-15T03:44:08;20.73;;;19.27;;
16731;SDS011;8484;50.904;9.192;2023-04-15T03:46:35;20.13;;;18.77;;
16731;SDS011;8484;50.904;9.192;2023-04-15T03:49:02;19.50;;;18.10;;
16731;SDS011;8484;50.904;9.192;2023-04-15T03:51:30;18.83;;;17.63;;
16731;SDS011;8484;50.904;9.192;2023-04-15T03:53:56;19.23;;;18.03;;
16731;SDS011;8484;50.904;9.192;2023-04-15T03:56:23;18.57;;;17.37;;
16731;SDS011;8484;50.904;9.192;2023-04-15T03:58:51;17.93;;;16.83;;
16731;SDS011;8484;50.904;9.192;2023-04-15T04:01:19;18.07;;;16.77;;
16731;SDS011;8484;50.904;9.192;2023-04-15T04:03:46;17.80;;;16.60;;
16731;SDS011;8484;50.904;9.192;2023-04-15T04:06:23;17.50;;;16.30;;
16731;SDS011;8484;50.904;9.192;2023-04-15T04:08:50;17.93;;;16.53;;
16731;SDS011;8484;50.904;9.192;2023-04-15T04:11:17;18.60;;;17.33;;
16731;SDS011;8484;50.904;9.192;2023-04-15T04:13:45;18.73;;;17.53;;
16731;SDS011;8484;50.904;9.192;2023-04-15T04:16:11;18.83;;;17.73;;
16731;SDS011;8484;50.904;9.192;2023-04-15T04:18:41;19.27;;;17.83;;
16731;SDS011;8484;50.904;9.192;2023-04-15T04:21:08;18.90;;;17.60;;
16731;SDS011;8484;50.904;9.192;2023-04-15T04:23:35;18.93;;;17.73;;
16731;SDS011;8484;50.904;9.192;2023-04-15T04:26:01;19.30;;;18.00;;
16731;SDS011;8484;50.904;9.192;2023-04-15T04:28:29;18.80;;;17.60;;
16731;SDS011;8484;50.904;9.192;2023-04-15T04:30:56;18.10;;;17.00;;
16731;SDS011;8484;50.904;9.192;2023-04-15T04:33:23;19.10;;;17.90;;
16731;SDS011;8484;50.904;9.192;2023-04-15T04:35:52;18.90;;;17.70;;
16731;SDS011;8484;50.904;9.192;2023-04-15T04:38:18;19.73;;;18.47;;
16731;SDS011;8484;50.904;9.192;2023-04-15T04:40:45;19.30;;;18.10;;
16731;SDS011;8484;50.904;9.192;2023-04-15T04:43:12;23.80;;;21.90;;
16731;SDS011;8484;50.904;9.192;2023-04-15T04:45:40;23.43;;;21.57;;
16731;SDS011;8484;50.904;9.192;2023-04-15T04:48:07;23.13;;;21.23;;
16731;SDS011;8484;50.904;9.192;2023-04-15T04:50:34;19.10;;;17.87;;
16731;SDS011;8484;50.904;9.192;2023-04-15T04:53:03;19.73;;;18.27;;
16731;SDS011;8484;50.904;9.192;2023-04-15T04:55:30;20.33;;;19.03;;
16731;SDS011;8484;50.904;9.192;2023-04-15T04:57:57;20.23;;;18.93;;
16731;SDS011;8484;50.904;9.192;2023-04-15T05:00:24;20.30;;;19.00;;
16731;SDS011;8484;50.904;9.192;2023-04-15T05:02:50;20.57;;;19.10;;
16731;SDS011;8484;50.904;9.192;2023-04-15T05:05:17;19.40;;;18.00;;
16731;SDS011;8484;50.904;9.192;2023-04-15T05:07:44;19.03;;;17.83;;
16731;SDS011;8484;50.904;9.192;2023-04-15T05:10:12;20.50;;;18.80;;
16731;SDS011;8484;50.904;9.192;2023-04-15T05:12:41;19.40;;;18.03;;
16731;SDS011;8484;50.904;9.192;2023-04-15T05:15:08;19.93;;;18.73;;
16731;SDS011;8484;50.904;9.192;2023-04-15T05:17:36;20.33;;;18.80;;
16731;SDS011;8484;50.904;9.192;2023-04-15T05:20:03;19.37;;;18.17;;
16731;SDS011;8484;50.904;9.192;2023-04-15T05:22:30;19.13;;;17.93;;
16731;SDS011;8484;50.904;9.192;2023-04-15T05:24:57;19.40;;;18.20;;
16731;SDS011;8484;50.904;9.192;2023-04-15T05:27:25;19.73;;;18.43;;
16731;SDS011;8484;50.904;9.192;2023-04-15T05:29:52;22.17;;;20.60;;
16731;SDS011;8484;50.904;9.192;2023-04-15T05:32:19;20.77;;;19.37;;
16731;SDS011;8484;50.904;9.192;2023-04-15T05:34:46;18.90;;;17.70;;
16731;SDS011;8484;50.904;9.192;2023-04-15T05:37:12;19.40;;;18.00;;
16731;SDS011;8484;50.904;9.192;2023-04-15T05:39:39;19.30;;;18.10;;
16731;SDS011;8484;50.904;9.192;2023-04-15T05:42:07;19.40;;;18.00;;
16731;SDS011;8484;50.904;9.192;2023-04-15T05:44:36;18.57;;;17.37;;
16731;SDS011;8484;50.904;9.192;2023-04-15T05:47:03;19.33;;;18.03;;
16731;SDS011;8484;50.904;9.192;2023-04-15T05:49:31;19.33;;;18.00;;
16731;SDS011;8484;50.904;9.192;2023-04-15T05:51:58;18.37;;;17.17;;
16731;SDS011;8484;50.904;9.192;2023-04-15T05:54:25;18.40;;;17.20;;
16731;SDS011;8484;50.904;9.192;2023-04-15T05:56:52;18.10;;;16.90;;
16731;SDS011;8484;50.904;9.192;2023-04-15T05:59:19;18.50;;;17.30;;
16731;SDS011;8484;50.904;9.192;2023-04-15T06:01:47;17.40;;;16.20;;
16731;SDS011;8484;50.904;9.192;2023-04-15T06:04:16;17.63;;;16.53;;
16731;SDS011;8484;50.904;9.192;2023-04-15T06:06:43;17.83;;;16.63;;
16731;SDS011;8484;50.904;9.192;2023-04-15T06:09:11;17.07;;;15.90;;
16731;SDS011;8484;50.904;9.192;2023-04-15T06:11:39;16.67;;;15.57;;
16731;SDS011;8484;50.904;9.192;2023-04-15T06:14:07;16.97;;;15.83;;
16731;SDS011;8484;50.904;9.192;2023-04-15T06:16:34;16.90;;;15.80;;
16731;SDS011;8484;50.904;9.192;2023-04-15T06:19:03;17.17;;;16.07;;
16731;SDS011;8484;50.904;9.192;2023-04-15T06:21:30;17.80;;;16.60;;
16731;SDS011;8484;50.904;9.192;2023-04-15T06:23:57;18.00;;;16.80;;
16731;SDS011;8484;50.904;9.192;2023-04-15T06:26:29;19.00;;;17.60;;
16731;SDS011;8484;50.904;9.192;2023-04-15T06:28:56;18.60;;;17.30;;
16731;SDS011;8484;50.904;9.192;2023-04-15T06:31:24;18.27;;;17.07;;
16731;SDS011;8484;50.904;9.192;2023-04-15T06:33:51;18.40;;;17.20;;
16731;SDS011;8484;50.904;9.192;2023-04-15T06:36:20;18.23;;;17.03;;
16731;SDS011;8484;50.904;9.192;2023-04-15T06:38:47;18.57;;;17.10;;
16731;SDS011;8484;50.904;9.192;2023-04-15T06:41:13;18.90;;;17.60;;
16731;SDS011;8484;50.904;9.192;2023-04-15T06:43:41;17.90;;;16.60;;
16731;SDS011;8484;50.904;9.192;2023-04-15T06:46:08;17.13;;;16.03;;
16731;SDS011;8484;50.904;9.192;2023-04-15T06:48:35;16.20;;;15.07;;
16731;SDS011;8484;50.904;9.192;2023-04-15T06:51:02;16.60;;;15.47;;
16731;SDS011;8484;50.904;9.192;2023-04-15T06:53:31;15.57;;;14.57;;
16731;SDS011;8484;50.904;9.192;2023-04-15T06:55:59;16.10;;;15.00;;
16731;SDS011;8484;50.904;9.192;2023-04-15T06:58:26;16.60;;;15.40;;
16731;SDS011;8484;50.904;9.192;2023-04-15T07:00:54;16.10;;;15.00;;
16731;SDS011;8484;50.904;9.192;2023-04-15T07:03:21;15.50;;;14.50;;
16731;SDS011;8484;50.904;9.192;2023-04-15T07:05:48;16.27;;;15.10;;
16731;SDS011;8484;50.904;9.192;2023-04-15T07:08:15;15.63;;;14.63;;
16731;SDS011;8484;50.904;9.192;2023-04-15T07:10:43;15.70;;;14.60;;
16731;SDS011;8484;50.904;9.192;2023-04-15T07:13:11;16.27;;;15.07;;
16731;SDS011;8484;50.904;9.192;2023-04-15T07:15:38;16.23;;;15.07;;
16731;SDS011;8484;50.904;9.192;2023-04-15T07:18:05;15.50;;;14.40;;
16731;SDS011;8484;50.904;9.192;2023-04-15T07:20:32;15.50;;;14.50;;
16731;SDS011;8484;50.904;9.192;2023-04-15T07:22:59;15.73;;;14.63;;
16731;SDS011;8484;50.904;9.192;2023-04-15T07:25:27;15.87;;;14.67;;
16731;SDS011;8484;50.904;9.192;2023-04-15T07:27:55;14.70;;;13.70;;
16731;SDS011;8484;50.904;9.192;2023-04-15T07:30:22;15.03;;;14.03;;
16731;SDS011;8484;50.904;9.192;2023-04-15T07:33:08;15.00;;;14.00;;
16731;SDS011;8484;50.904;9.192;2023-04-15T07:35:53;14.40;;;13.50;;
16731;SDS011;8484;50.904;9.192;2023-04-15T07:38:40;14.03;;;13.07;;
16731;SDS011;8484;50.904;9.192;2023-04-15T07:41:26;14.27;;;13.27;;
16731;SDS011;8484;50.904;9.192;2023-04-15T07:44:13;14.77;;;13.77;;
16731;SDS011;8484;50.904;9.192;2023-04-15T07:46:59;14.80;;;13.80;;
16731;SDS011;8484;50.904;9.192;2023-04-15T07:49:44;14.53;;;13.53;;
16731;SDS011;8484;50.904;9.192;2023-04-15T07:52:30;14.43;;;13.53;;
16731;SDS011;8484;50.904;9.192;2023-04-15T07:55:21;14.60;;;13.50;;
16731;SDS011;8484;50.904;9.192;2023-04-15T07:58:07;14.60;;;13.60;;
16731;SDS011;8484;50.904;9.192;2023-04-15T08:00:54;14.77;;;13.77;;
16731;SDS011;8484;50.904;9.192;2023-04-15T08:03:39;14.97;;;13.97;;
16731;SDS011;8484;50.904;9.192;2023-04-15T08:06:25;14.20;;;13.30;;
16731;SDS011;8484;50.904;9.192;2023-04-15T08:09:11;14.60;;;13.60;;
16731;SDS011;8484;50.904;9.192;2023-04-15T08:11:57;15.17;;;14.17;;
16731;SDS011;8484;50.904;9.192;2023-04-15T08:14:43;15.47;;;14.37;;
16731;SDS011;8484;50.904;9.192;2023-04-15T08:17:30;14.80;;;13.80;;
16731;SDS011;8484;50.904;9.192;2023-04-15T08:20:16;15.67;;;14.57;;
16731;SDS011;8484;50.904;9.192;2023-04-15T08:23:02;14.80;;;13.83;;
16731;SDS011;8484;50.904;9.192;2023-04-15T08:25:47;16.23;;;15.13;;
16731;SDS011;8484;50.904;9.192;2023-04-15T08:28:33;16.47;;;15.37;;
16731;SDS011;8484;50.904;9.192;2023-04-15T08:31:19;16.10;;;15.10;;
16731;SDS011;8484;50.904;9.192;2023-04-15T08:34:12;15.07;;;14.07;;
16731;SDS011;8484;50.904;9.192;2023-04-15T08:36:58;15.53;;;14.40;;
16731;SDS011;8484;50.904;9.192;2023-04-15T08:39:44;14.83;;;13.87;;
16731;SDS011;8484;50.904;9.192;2023-04-15T10:18:57;17.90;;;16.80;;
16731;SDS011;8484;50.904;9.192;2023-04-15T10:21:34;15.87;;;14.97;;
16731;SDS011;8484;50.904;9.192;2023-04-15T10:24:02;15.43;;;14.43;;
16731;SDS011;8484;50.904;9.192;2023-04-15T10:26:31;16.10;;;15.10;;
16731;SDS011;8484;50.904;9.192;2023-04-15T10:28:58;16.07;;;15.07;;
16731;SDS011;8484;50.904;9.192;2023-04-15T10:31:26;15.93;;;14.77;;
16731;SDS011;8484;50.904;9.192;2023-04-15T10:33:54;15.90;;;15.00;;
16731;SDS011;8484;50.904;9.192;2023-04-15T10:36:23;16.70;;;15.70;;
16731;SDS011;8484;50.904;9.192;2023-04-15T10:38:51;16.50;;;15.60;;
16731;SDS011;8484;50.904;9.192;2023-04-15T10:41:18;17.67;;;16.57;;
16731;SDS011;8484;50.904;9.192;2023-04-15T10:43:50;18.70;;;17.60;;
16731;SDS011;8484;50.904;9.192;2023-04-15T10:46:18;18.53;;;17.43;;
16731;SDS011;8484;50.904;9.192;2023-04-15T10:48:47;20.10;;;18.90;;
16731;SDS011;8484;50.904;9.192;2023-04-15T10:51:15;32.27;;;20.27;;
16731;SDS011;8484;50.904;9.192;2023-04-15T10:53:56;20.67;;;19.20;;
16731;SDS011;8484;50.904;9.192;2023-04-15T10:56:24;20.40;;;18.43;;
16731;SDS011;8484;50.904;9.192;2023-04-15T10:58:51;19.87;;;18.57;;
16731;SDS011;8484;50.904;9.192;2023-04-15T11:01:18;20.97;;;19.67;;
16731;SDS011;8484;50.904;9.192;2023-04-15T11:03:47;19.37;;;18.17;;
16731;SDS011;8484;50.904;9.192;2023-04-15T11:06:15;20.17;;;18.97;;
16731;SDS011;8484;50.904;9.192;2023-04-15T11:08:51;19.87;;;18.67;;
16731;SDS011;8484;50.904;9.192;2023-04-15T11:11:21;20.17;;;18.93;;
16731;SDS011;8484;50.904;9.192;2023-04-15T11:13:49;19.80;;;18.63;;
16731;SDS011;8484;50.904;9.192;2023-04-15T11:16:18;18.90;;;17.80;;
16731;SDS011;8484;50.904;9.192;2023-04-15T11:18:52;20.37;;;19.07;;
16731;SDS011;8484;50.904;9.192;2023-04-15T11:21:20;19.57;;;18.37;;
16731;SDS011;8484;50.904;9.192;2023-04-15T11:23:52;20.67;;;19.37;;
16731;SDS011;8484;50.904;9.192;2023-04-15T11:26:18;21.37;;;20.07;;
16731;SDS011;8484;50.904;9.192;2023-04-15T11:28:55;21.63;;;20.33;;
16731;SDS011;8484;50.904;9.192;2023-04-15T11:31:25;21.27;;;19.97;;
16731;SDS011;8484;50.904;9.192;2023-04-15T11:33:53;24.33;;;22.77;;
16731;SDS011;8484;50.904;9.192;2023-04-15T11:36:26;30.90;;;28.70;;
16731;SDS011;8484;50.904;9.192;2023-04-15T11:38:53;24.70;;;23.00;;
16731;SDS011;8484;50.904;9.192;2023-04-15T11:41:21;25.60;;;23.90;;
16731;SDS011;8484;50.904;9.192;2023-04-15T11:43:50;25.53;;;23.93;;
16731;SDS011;8484;50.904;9.192;2023-04-15T11:46:18;24.37;;;22.80;;
16731;SDS011;8484;50.904;9.192;2023-04-15T11:48:46;25.03;;;23.40;;
16731;SDS011;8484;50.904;9.192;2023-04-15T11:51:13;25.27;;;23.57;;
16731;SDS011;8484;50.904;9.192;2023-04-15T11:53:41;24.93;;;23.43;;
16731;SDS011;8484;50.904;9.192;2023-04-15T11:56:10;31.40;;;29.20;;
16731;SDS011;8484;50.904;9.192;2023-04-15T11:58:42;28.47;;;26.67;;
16731;SDS011;8484;50.904;9.192;2023-04-15T12:01:12;29.97;;;27.97;;
16731;SDS011;8484;50.904;9.192;2023-04-15T12:03:39;32.10;;;29.90;;
16731;SDS011;8484;50.904;9.192;2023-04-15T12:06:11;39.57;;;36.67;;
16731;SDS011;8484;50.904;9.192;2023-04-15T12:08:59;32.50;;;30.27;;
16731;SDS011;8484;50.904;9.192;2023-04-15T12:11:30;59.27;;;54.30;;
16731;SDS011;8484;50.904;9.192;2023-04-15T12:14:03;56.33;;;51.77;;
16731;SDS011;8484;50.904;9.192;2023-04-15T12:16:39;44.90;;;41.47;;
16731;SDS011;8484;50.904;9.192;2023-04-15T12:19:08;60.07;;;54.80;;
16731;SDS011;8484;50.904;9.192;2023-04-15T12:21:37;56.30;;;51.43;;
16731;SDS011;8484;50.904;9.192;2023-04-15T12:24:06;71.13;;;64.93;;
16731;SDS011;8484;50.904;9.192;2023-04-15T12:26:35;38.00;;;35.23;;
16731;SDS011;8484;50.904;9.192;2023-04-15T12:29:04;39.23;;;36.43;;
16731;SDS011;8484;50.904;9.192;2023-04-15T12:31:35;30.87;;;28.97;;
16731;SDS011;8484;50.904;9.192;2023-04-15T12:34:06;31.33;;;29.40;;
16731;SDS011;8484;50.904;9.192;2023-04-15T12:36:33;32.00;;;30.00;;
16731;SDS011;8484;50.904;9.192;2023-04-15T12:39:02;33.43;;;31.43;;
16731;SDS011;8484;50.904;9.192;2023-04-15T12:41:29;35.77;;;33.47;;
16731;SDS011;8484;50.904;9.192;2023-04-15T12:43:58;29.50;;;27.70;;
16731;SDS011;8484;50.904;9.192;2023-04-15T12:46:25;27.97;;;26.27;;
16731;SDS011;8484;50.904;9.192;2023-04-15T12:48:52;29.13;;;27.37;;
16731;SDS011;8484;50.904;9.192;2023-04-15T12:51:21;28.87;;;27.13;;
16731;SDS011;8484;50.904;9.192;2023-04-15T12:53:48;26.87;;;25.27;;
16731;SDS011;8484;50.904;9.192;2023-04-15T12:56:14;25.87;;;24.37;;
16731;SDS011;8484;50.904;9.192;2023-04-15T12:58:42;27.73;;;26.13;;
16731;SDS011;8484;50.904;9.192;2023-04-15T13:01:09;27.10;;;25.50;;
16731;SDS011;8484;50.904;9.192;2023-04-15T13:03:36;27.13;;;25.53;;
16731;SDS011;8484;50.904;9.192;2023-04-15T13:06:02;27.90;;;26.23;;
16731;SDS011;8484;50.904;9.192;2023-04-15T13:08:31;26.87;;;25.30;;
16731;SDS011;8484;50.904;9.192;2023-04-15T13:10:58;26.57;;;25.07;;
16731;SDS011;8484;50.904;9.192;2023-04-15T13:13:25;25.97;;;24.40;;
16731;SDS011;8484;50.904;9.192;2023-04-15T13:15:52;26.87;;;25.37;;
16731;SDS011;8484;50.904;9.192;2023-04-15T13:18:20;27.07;;;25.47;;
16731;SDS011;8484;50.904;9.192;2023-04-15T13:20:47;25.23;;;23.73;;
16731;SDS011;8484;50.904;9.192;2023-04-15T13:23:14;27.07;;;25.47;;
16731;SDS011;8484;50.904;9.192;2023-04-15T13:25:43;26.03;;;24.53;;
16731;SDS011;8484;50.904;9.192;2023-04-15T13:28:10;28.23;;;26.53;;
16731;SDS011;8484;50.904;9.192;2023-04-15T13:30:37;27.23;;;25.63;;
16731;SDS011;8484;50.904;9.192;2023-04-15T13:33:05;27.50;;;25.90;;
16731;SDS011;8484;50.904;9.192;2023-04-15T13:35:31;27.93;;;26.33;;
16731;SDS011;8484;50.904;9.192;2023-04-15T13:37:58;28.80;;;27.10;;
16731;SDS011;8484;50.904;9.192;2023-04-15T13:40:25;26.50;;;24.93;;
16731;SDS011;8484;50.904;9.192;2023-04-15T13:42:54;28.00;;;26.20;;
16731;SDS011;8484;50.904;9.192;2023-04-15T13:45:21;26.97;;;25.37;;
16731;SDS011;8484;50.904;9.192;2023-04-15T13:47:48;27.57;;;25.97;;
16731;SDS011;8484;50.904;9.192;2023-04-15T13:50:19;26.70;;;25.10;;
16731;SDS011;8484;50.904;9.192;2023-04-15T13:52:46;26.73;;;25.23;;
16731;SDS011;8484;50.904;9.192;2023-04-15T13:55:13;26.20;;;24.70;;
16731;SDS011;8484;50.904;9.192;2023-04-15T13:57:40;26.87;;;25.33;;
16731;SDS011;8484;50.904;9.192;2023-04-15T14:00:09;26.20;;;24.70;;
16731;SDS011;8484;50.904;9.192;2023-04-15T14:02:36;27.67;;;26.07;;
16731;SDS011;8484;50.904;9.192;2023-04-15T14:05:05;27.87;;;26.27;;
16731;SDS011;8484;50.904;9.192;2023-04-15T14:07:32;27.60;;;26.00;;
16731;SDS011;8484;50.904;9.192;2023-04-15T14:09:59;29.13;;;27.43;;
16731;SDS011;8484;50.904;9.192;2023-04-15T14:12:26;31.17;;;29.37;;
16731;SDS011;8484;50.904;9.192;2023-04-15T14:14:53;31.00;;;29.20;;
16731;SDS011;8484;50.904;9.192;2023-04-15T14:17:21;27.70;;;26.07;;
16731;SDS011;8484;50.904;9.192;2023-04-15T14:19:48;28.70;;;27.10;;
16731;SDS011;8484;50.904;9.192;2023-04-15T14:22:15;29.17;;;27.47;;
16731;SDS011;8484;50.904;9.192;2023-04-15T14:24:43;28.83;;;27.13;;
16731;SDS011;8484;50.904;9.192;2023-04-15T14:27:10;30.07;;;28.37;;
16731;SDS011;8484;50.904;9.192;2023-04-15T14:29:37;30.17;;;28.37;;
16731;SDS011;8484;50.904;9.192;2023-04-15T14:32:04;29.57;;;27.80;;
16731;SDS011;8484;50.904;9.192;2023-04-15T14:34:33;31.10;;;29.23;;
16731;SDS011;8484;50.904;9.192;2023-04-15T14:37:00;30.67;;;28.87;;
16731;SDS011;8484;50.904;9.192;2023-04-15T14:39:29;29.50;;;27.80;;
16731;SDS011;8484;50.904;9.192;2023-04-15T14:42:01;30.87;;;29.07;;
16731;SDS011;8484;50.904;9.192;2023-04-15T14:44:28;30.97;;;29.17;;
16731;SDS011;8484;50.904;9.192;2023-04-15T14:46:55;30.27;;;28.57;;
16731;SDS011;8484;50.904;9.192;2023-04-15T14:49:22;30.40;;;28.70;;
16731;SDS011;8484;50.904;9.192;2023-04-15T14:51:50;30.80;;;28.90;;
16731;SDS011;8484;50.904;9.192;2023-04-15T14:54:17;31.10;;;29.30;;
16731;SDS011;8484;50.904;9.192;2023-04-15T14:56:44;29.97;;;28.27;;
16731;SDS011;8484;50.904;9.192;2023-04-15T14:59:11;30.77;;;29.07;;
16731;SDS011;8484;50.904;9.192;2023-04-15T15:01:38;31.73;;;29.93;;
16731;SDS011;8484;50.904;9.192;2023-04-15T15:04:05;33.20;;;31.30;;
16731;SDS011;8484;50.904;9.192;2023-04-15T15:06:32;31.97;;;30.10;;
16731;SDS011;8484;50.904;9.192;2023-04-15T15:09:01;31.73;;;29.93;;
16731;SDS011;8484;50.904;9.192;2023-04-15T15:11:28;32.13;;;30.30;;
16731;SDS011;8484;50.904;9.192;2023-04-15T15:13:55;32.27;;;30.43;;
16731;SDS011;8484;50.904;9.192;2023-04-15T15:16:22;31.70;;;29.90;;
16731;SDS011;8484;50.904;9.192;2023-04-15T15:18:49;32.37;;;30.47;;
16731;SDS011;8484;50.904;9.192;2023-04-15T15:21:16;35.00;;;32.90;;
16731;SDS011;8484;50.904;9.192;2023-04-15T15:23:43;34.73;;;32.43;;
16731;SDS011;8484;50.904;9.192;2023-04-15T15:26:13;33.80;;;31.83;;
16731;SDS011;8484;50.904;9.192;2023-04-15T15:28:40;32.37;;;30.57;;
16731;SDS011;8484;50.904;9.192;2023-04-15T15:31:07;33.50;;;31.60;;
16731;SDS011;8484;50.904;9.192;2023-04-15T15:33:36;33.13;;;31.23;;
16731;SDS011;8484;50.904;9.192;2023-04-15T15:36:03;32.03;;;30.23;;
16731;SDS011;8484;50.904;9.192;2023-04-15T15:38:30;32.73;;;30.83;;
16731;SDS011;8484;50.904;9.192;2023-04-15T15:40:57;32.40;;;30.50;;
16731;SDS011;8484;50.904;9.192;2023-04-15T15:43:25;33.37;;;31.47;;
16731;SDS011;8484;50.904;9.192;2023-04-15T15:45:53;36.77;;;34.57;;
16731;SDS011;8484;50.904;9.192;2023-04-15T15:48:25;33.87;;;31.87;;
16731;SDS011;8484;50.904;9.192;2023-04-15T15:50:52;37.57;;;35.30;;
16731;SDS011;8484;50.904;9.192;2023-04-15T15:53:19;39.90;;;37.40;;
16731;SDS011;8484;50.904;9.192;2023-04-15T15:55:49;35.50;;;33.30;;
16731;SDS011;8484;50.904;9.192;2023-04-15T15:58:16;33.73;;;31.77;;
16731;SDS011;8484;50.904;9.192;2023-04-15T16:00:46;34.90;;;32.87;;
16731;SDS011;8484;50.904;9.192;2023-04-15T16:03:13;34.83;;;32.83;;
16731;SDS011;8484;50.904;9.192;2023-04-15T16:05:40;34.57;;;32.57;;
16731;SDS011;8484;50.904;9.192;2023-04-15T16:08:07;36.27;;;34.07;;
16731;SDS011;8484;50.904;9.192;2023-04-15T16:10:35;34.20;;;32.23;;
16731;SDS011;8484;50.904;9.192;2023-04-15T16:13:03;33.47;;;31.57;;
16731;SDS011;8484;50.904;9.192;2023-04-15T16:15:30;34.53;;;32.53;;
16731;SDS011;8484;50.904;9.192;2023-04-15T16:17:58;34.87;;;32.83;;
16731;SDS011;8484;50.904;9.192;2023-04-15T16:20:25;34.30;;;32.30;;